Baltimore, Maryland
Traffic Map
Current Weather Conditions
Baltimore, Maryland
Broken Clouds
Broken Clouds
75°
Feels Like: 75°
Wind Chill: 75° Ceiling: 22000
Heat Index: 75° Visibility: 10mi
Dew Point: 51° Wind: 10mph
Humidity: 43% Direction: 270° (W)
Pressure: 29.92in Gusts: 17mph
Raw Report DataKBWI 291854Z 27009G15KT 10SM SCT049 BKN220 24/11 A2992 RMK AO2 SLP131 T02390106
Traffic Incident Summary
Active as of:
Severity:
Category:
InformationThere was an issue retrieving the traffic information for this location. Please try a different location or try again shortly.
Advertisements
Track Severe Weather on mobile